sensor_id;sensor_type;location;lat;lon;timestamp;pressure;altitude;pressure_sealevel;temperature;humidity
64019;BME280;66942;52.138;5.216;2023-07-31T00:00:20;100944.0;;;25.35;49.44
64019;BME280;66942;52.138;5.216;2023-07-31T00:03:34;100940.0;;;25.4;49.37
64019;BME280;66942;52.138;5.216;2023-07-31T00:05:10;100934.0;;;25.27;49.82
64019;BME280;66942;52.138;5.216;2023-07-31T00:06:47;100934.0;;;25.19;50.13
64019;BME280;66942;52.138;5.216;2023-07-31T00:10:01;100933.0;;;25.17;50.28
64019;BME280;66942;52.138;5.216;2023-07-31T00:11:38;100934.0;;;25.13;50.44
64019;BME280;66942;52.138;5.216;2023-07-31T00:13:15;100933.0;;;25.35;49.98
64019;BME280;66942;52.138;5.216;2023-07-31T00:14:51;100928.0;;;25.27;50.25
64019;BME280;66942;52.138;5.216;2023-07-31T00:18:05;100926.0;;;25.32;50.2
64019;BME280;66942;52.138;5.216;2023-07-31T00:19:42;100930.0;;;25.49;49.74
64019;BME280;66942;52.138;5.216;2023-07-31T00:21:20;100928.0;;;25.45;49.97
64019;BME280;66942;52.138;5.216;2023-07-31T00:24:34;100927.0;;;25.4;50.2
64019;BME280;66942;52.138;5.216;2023-07-31T00:26:10;100926.0;;;25.39;50.26
64019;BME280;66942;52.138;5.216;2023-07-31T00:27:47;100925.0;;;25.46;50.21
64019;BME280;66942;52.138;5.216;2023-07-31T00:31:01;100922.0;;;25.43;50.37
64019;BME280;66942;52.138;5.216;2023-07-31T00:32:38;100918.0;;;25.47;50.24
64019;BME280;66942;52.138;5.216;2023-07-31T00:34:14;100915.0;;;25.51;50.31
64019;BME280;66942;52.138;5.216;2023-07-31T00:35:51;100911.0;;;25.71;49.95
64019;BME280;66942;52.138;5.216;2023-07-31T00:39:04;100905.0;;;25.75;49.97
64019;BME280;66942;52.138;5.216;2023-07-31T00:40:41;100912.0;;;25.77;50.03
64019;BME280;66942;52.138;5.216;2023-07-31T00:42:18;100915.0;;;25.87;50.09
64019;BME280;66942;52.138;5.216;2023-07-31T00:45:30;100914.0;;;25.33;51.81
64019;BME280;66942;52.138;5.216;2023-07-31T00:47:08;100919.0;;;25.89;50.64
64019;BME280;66942;52.138;5.216;2023-07-31T00:48:45;100914.0;;;25.98;50.6
64019;BME280;66942;52.138;5.216;2023-07-31T00:50:24;100910.0;;;26.1;50.35
64019;BME280;66942;52.138;5.216;2023-07-31T00:53:37;100912.0;;;26.25;50.08
64019;BME280;66942;52.138;5.216;2023-07-31T00:55:14;100918.0;;;25.89;51.1
64019;BME280;66942;52.138;5.216;2023-07-31T00:56:52;100913.0;;;26.3;50.25
64019;BME280;66942;52.138;5.216;2023-07-31T01:00:08;100908.0;;;26.27;50.42
64019;BME280;66942;52.138;5.216;2023-07-31T01:01:46;100912.0;;;25.17;53.19
64019;BME280;66942;52.138;5.216;2023-07-31T01:03:23;100913.0;;;25.8;51.24
64019;BME280;66942;52.138;5.216;2023-07-31T01:06:44;100918.0;;;25.99;50.7
64019;BME280;66942;52.138;5.216;2023-07-31T01:08:32;100913.0;;;25.98;50.59
64019;BME280;66942;52.138;5.216;2023-07-31T01:10:27;100914.0;;;25.41;51.08
64019;BME280;66942;52.138;5.216;2023-07-31T01:12:13;100910.0;;;26.0;49.84
64019;BME280;66942;52.138;5.216;2023-07-31T01:13:50;100915.0;;;26.26;49.35
64019;BME280;66942;52.138;5.216;2023-07-31T01:15:27;100912.0;;;26.15;49.43
64019;BME280;66942;52.138;5.216;2023-07-31T01:18:41;100907.0;;;26.07;49.4
64019;BME280;66942;52.138;5.216;2023-07-31T01:20:21;100911.0;;;26.11;49.1
64019;BME280;66942;52.138;5.216;2023-07-31T01:22:12;100915.0;;;26.27;48.92
64019;BME280;66942;52.138;5.216;2023-07-31T01:24:41;100909.0;;;26.19;49.01
64019;BME280;66942;52.138;5.216;2023-07-31T01:26:26;100907.0;;;26.18;49.02
64019;BME280;66942;52.138;5.216;2023-07-31T01:28:07;100905.0;;;26.13;49.24
64019;BME280;66942;52.138;5.216;2023-07-31T01:31:36;100901.0;;;26.22;49.09
64019;BME280;66942;52.138;5.216;2023-07-31T01:33:15;100901.0;;;26.18;49.28
64019;BME280;66942;52.138;5.216;2023-07-31T01:34:53;100903.0;;;26.22;49.2
64019;BME280;66942;52.138;5.216;2023-07-31T01:36:31;100900.0;;;26.19;49.38
64019;BME280;66942;52.138;5.216;2023-07-31T01:39:45;100905.0;;;26.24;49.37
64019;BME280;66942;52.138;5.216;2023-07-31T01:41:21;100899.0;;;26.31;49.26
64019;BME280;66942;52.138;5.216;2023-07-31T01:42:57;100898.0;;;25.94;49.79
64019;BME280;66942;52.138;5.216;2023-07-31T01:46:11;100903.0;;;26.18;49.8
64019;BME280;66942;52.138;5.216;2023-07-31T01:47:48;100898.0;;;26.26;49.72
64019;BME280;66942;52.138;5.216;2023-07-31T01:49:25;100900.0;;;26.28;49.83
64019;BME280;66942;52.138;5.216;2023-07-31T01:52:38;100892.0;;;26.23;49.86
64019;BME280;66942;52.138;5.216;2023-07-31T01:54:16;100899.0;;;26.36;49.59
64019;BME280;66942;52.138;5.216;2023-07-31T01:55:52;100892.0;;;26.38;49.56
64019;BME280;66942;52.138;5.216;2023-07-31T01:57:28;100893.0;;;26.47;49.37
64019;BME280;66942;52.138;5.216;2023-07-31T02:00:41;100887.0;;;26.45;49.47
64019;BME280;66942;52.138;5.216;2023-07-31T02:02:18;100889.0;;;26.47;49.47
64019;BME280;66942;52.138;5.216;2023-07-31T02:03:55;100880.0;;;25.76;50.89
64019;BME280;66942;52.138;5.216;2023-07-31T02:07:09;100875.0;;;26.12;49.99
64019;BME280;66942;52.138;5.216;2023-07-31T02:08:45;100868.0;;;25.86;50.62
64019;BME280;66942;52.138;5.216;2023-07-31T02:10:23;100865.0;;;26.23;49.67
64019;BME280;66942;52.138;5.216;2023-07-31T02:12:01;100860.0;;;26.2;49.73
64019;BME280;66942;52.138;5.216;2023-07-31T02:15:13;100859.0;;;25.76;50.74
64019;BME280;66942;52.138;5.216;2023-07-31T02:16:50;100855.0;;;26.16;49.76
64019;BME280;66942;52.138;5.216;2023-07-31T02:18:26;100847.0;;;26.1;49.86
64019;BME280;66942;52.138;5.216;2023-07-31T02:21:42;100844.0;;;26.15;49.58
64019;BME280;66942;52.138;5.216;2023-07-31T02:23:18;100847.0;;;26.26;49.44
64019;BME280;66942;52.138;5.216;2023-07-31T02:24:55;100842.0;;;25.92;49.72
64019;BME280;66942;52.138;5.216;2023-07-31T02:28:07;100843.0;;;26.07;49.78
64019;BME280;66942;52.138;5.216;2023-07-31T02:29:45;100841.0;;;26.2;49.54
64019;BME280;66942;52.138;5.216;2023-07-31T02:31:21;100842.0;;;26.25;49.46
64019;BME280;66942;52.138;5.216;2023-07-31T02:32:59;100843.0;;;26.25;49.43
64019;BME280;66942;52.138;5.216;2023-07-31T02:36:11;100843.0;;;26.04;49.81
64019;BME280;66942;52.138;5.216;2023-07-31T02:37:49;100853.0;;;26.14;49.77
64019;BME280;66942;52.138;5.216;2023-07-31T02:39:26;100850.0;;;26.18;49.6
64019;BME280;66942;52.138;5.216;2023-07-31T02:42:39;100844.0;;;26.22;49.43
64019;BME280;66942;52.138;5.216;2023-07-31T02:44:16;100844.0;;;26.24;49.35
64019;BME280;66942;52.138;5.216;2023-07-31T02:45:52;100843.0;;;26.23;49.32
64019;BME280;66942;52.138;5.216;2023-07-31T02:49:06;100841.0;;;26.23;49.5
64019;BME280;66942;52.138;5.216;2023-07-31T02:50:42;100838.0;;;26.18;49.62
64019;BME280;66942;52.138;5.216;2023-07-31T02:52:18;100839.0;;;26.24;49.53
64019;BME280;66942;52.138;5.216;2023-07-31T02:53:55;100831.0;;;26.3;49.3
64019;BME280;66942;52.138;5.216;2023-07-31T02:57:08;100833.0;;;26.28;49.42
64019;BME280;66942;52.138;5.216;2023-07-31T02:58:45;100831.0;;;26.19;49.6
64019;BME280;66942;52.138;5.216;2023-07-31T03:00:21;100828.0;;;26.22;49.29
64019;BME280;66942;52.138;5.216;2023-07-31T03:03:35;100825.0;;;26.25;49.42
64019;BME280;66942;52.138;5.216;2023-07-31T03:05:12;100824.0;;;26.29;49.36
64019;BME280;66942;52.138;5.216;2023-07-31T03:06:49;100830.0;;;26.45;49.02
64019;BME280;66942;52.138;5.216;2023-07-31T03:08:26;100830.0;;;26.42;49.05
64019;BME280;66942;52.138;5.216;2023-07-31T03:11:40;100820.0;;;26.17;49.49
64019;BME280;66942;52.138;5.216;2023-07-31T03:13:17;100824.0;;;26.24;49.47
64019;BME280;66942;52.138;5.216;2023-07-31T03:14:54;100830.0;;;26.4;49.05
64019;BME280;66942;52.138;5.216;2023-07-31T03:18:08;100830.0;;;26.23;49.45
64019;BME280;66942;52.138;5.216;2023-07-31T03:19:45;100825.0;;;26.34;49.23
64019;BME280;66942;52.138;5.216;2023-07-31T03:21:21;100823.0;;;26.37;49.11
64019;BME280;66942;52.138;5.216;2023-07-31T03:24:34;100822.0;;;26.21;49.29
64019;BME280;66942;52.138;5.216;2023-07-31T03:26:11;100825.0;;;26.32;49.0
64019;BME280;66942;52.138;5.216;2023-07-31T03:27:48;100824.0;;;26.3;49.0
64019;BME280;66942;52.138;5.216;2023-07-31T03:29:26;100826.0;;;26.38;48.87
64019;BME280;66942;52.138;5.216;2023-07-31T03:32:38;100827.0;;;26.33;48.83
64019;BME280;66942;52.138;5.216;2023-07-31T03:34:15;100825.0;;;26.19;49.19
64019;BME280;66942;52.138;5.216;2023-07-31T03:35:52;100816.0;;;26.12;49.32
64019;BME280;66942;52.138;5.216;2023-07-31T03:39:06;100819.0;;;26.12;49.25
64019;BME280;66942;52.138;5.216;2023-07-31T03:40:42;100816.0;;;26.21;49.06
64019;BME280;66942;52.138;5.216;2023-07-31T03:42:19;100815.0;;;26.16;49.22
64019;BME280;66942;52.138;5.216;2023-07-31T03:45:33;100813.0;;;26.15;49.16
64019;BME280;66942;52.138;5.216;2023-07-31T03:47:11;100810.0;;;26.12;49.23
64019;BME280;66942;52.138;5.216;2023-07-31T03:48:47;100811.0;;;26.14;49.2
64019;BME280;66942;52.138;5.216;2023-07-31T03:50:24;100815.0;;;26.14;49.19
64019;BME280;66942;52.138;5.216;2023-07-31T03:53:37;100808.0;;;26.09;49.3
64019;BME280;66942;52.138;5.216;2023-07-31T03:55:14;100808.0;;;26.13;49.18
64019;BME280;66942;52.138;5.216;2023-07-31T03:56:51;100805.0;;;26.07;49.35
64019;BME280;66942;52.138;5.216;2023-07-31T04:00:06;100801.0;;;25.81;49.73
64019;BME280;66942;52.138;5.216;2023-07-31T04:01:43;100801.0;;;26.06;49.11
64019;BME280;66942;52.138;5.216;2023-07-31T04:03:19;100793.0;;;26.04;49.12
64019;BME280;66942;52.138;5.216;2023-07-31T04:04:56;100792.0;;;26.06;49.0
64019;BME280;66942;52.138;5.216;2023-07-31T04:08:09;100789.0;;;26.02;48.91
64019;BME280;66942;52.138;5.216;2023-07-31T04:09:47;100787.0;;;25.61;49.78
64019;BME280;66942;52.138;5.216;2023-07-31T04:11:23;100785.0;;;25.92;49.27
64019;BME280;66942;52.138;5.216;2023-07-31T04:14:37;100789.0;;;26.09;48.78
64019;BME280;66942;52.138;5.216;2023-07-31T04:16:13;100778.0;;;26.02;48.82
64019;BME280;66942;52.138;5.216;2023-07-31T04:17:50;100776.0;;;26.02;48.95
64019;BME280;66942;52.138;5.216;2023-07-31T04:21:03;100770.0;;;26.08;48.6
64019;BME280;66942;52.138;5.216;2023-07-31T04:22:40;100767.0;;;26.07;48.74
64019;BME280;66942;52.138;5.216;2023-07-31T04:24:17;100771.0;;;26.09;48.58
64019;BME280;66942;52.138;5.216;2023-07-31T04:25:54;100772.0;;;26.06;48.69
64019;BME280;66942;52.138;5.216;2023-07-31T04:29:08;100772.0;;;25.84;49.22
64019;BME280;66942;52.138;5.216;2023-07-31T04:30:45;100769.0;;;25.89;49.06
64019;BME280;66942;52.138;5.216;2023-07-31T04:32:23;100776.0;;;25.99;48.93
64019;BME280;66942;52.138;5.216;2023-07-31T04:35:36;100780.0;;;26.04;48.72
64019;BME280;66942;52.138;5.216;2023-07-31T04:37:12;100775.0;;;26.07;48.62
64019;BME280;66942;52.138;5.216;2023-07-31T04:38:50;100778.0;;;25.9;48.72
64019;BME280;66942;52.138;5.216;2023-07-31T04:42:04;100776.0;;;25.73;49.31
64019;BME280;66942;52.138;5.216;2023-07-31T04:43:40;100780.0;;;25.94;48.86
64019;BME280;66942;52.138;5.216;2023-07-31T04:45:17;100776.0;;;25.75;49.12
64019;BME280;66942;52.138;5.216;2023-07-31T04:46:54;100772.0;;;25.88;48.77
64019;BME280;66942;52.138;5.216;2023-07-31T04:50:08;100771.0;;;25.95;48.55
64019;BME280;66942;52.138;5.216;2023-07-31T04:51:45;100767.0;;;25.98;48.57
64019;BME280;66942;52.138;5.216;2023-07-31T04:53:21;100763.0;;;25.95;48.78
64019;BME280;66942;52.138;5.216;2023-07-31T04:56:35;100760.0;;;25.58;49.32
64019;BME280;66942;52.138;5.216;2023-07-31T04:58:12;100756.0;;;25.82;49.15
64019;BME280;66942;52.138;5.216;2023-07-31T04:59:49;100753.0;;;25.7;49.26
64019;BME280;66942;52.138;5.216;2023-07-31T05:01:25;100750.0;;;25.9;48.87
64019;BME280;66942;52.138;5.216;2023-07-31T05:04:38;100748.0;;;25.7;49.16
64019;BME280;66942;52.138;5.216;2023-07-31T05:06:16;100746.0;;;25.78;49.09
64019;BME280;66942;52.138;5.216;2023-07-31T05:07:53;100750.0;;;25.82;49.13
64019;BME280;66942;52.138;5.216;2023-07-31T05:11:07;100751.0;;;25.73;49.12
64019;BME280;66942;52.138;5.216;2023-07-31T05:12:44;100748.0;;;25.58;49.57
64019;BME280;66942;52.138;5.216;2023-07-31T05:14:21;100745.0;;;25.69;49.4
64019;BME280;66942;52.138;5.216;2023-07-31T05:17:34;100746.0;;;25.64;49.71
64019;BME280;66942;52.138;5.216;2023-07-31T05:19:12;100737.0;;;25.48;49.82
64019;BME280;66942;52.138;5.216;2023-07-31T05:20:49;100734.0;;;25.5;49.91
64019;BME280;66942;52.138;5.216;2023-07-31T05:22:26;100736.0;;;25.46;49.65
64019;BME280;66942;52.138;5.216;2023-07-31T05:25:41;100742.0;;;25.54;49.81
64019;BME280;66942;52.138;5.216;2023-07-31T05:27:18;100737.0;;;25.47;49.95
64019;BME280;66942;52.138;5.216;2023-07-31T05:28:56;100731.0;;;25.16;50.49
64019;BME280;66942;52.138;5.216;2023-07-31T05:32:08;100725.0;;;25.25;50.56
64019;BME280;66942;52.138;5.216;2023-07-31T05:33:45;100727.0;;;25.22;50.63
64019;BME280;66942;52.138;5.216;2023-07-31T05:35:21;100723.0;;;25.37;50.16
64019;BME280;66942;52.138;5.216;2023-07-31T05:38:34;100718.0;;;25.23;50.48
64019;BME280;66942;52.138;5.216;2023-07-31T05:40:11;100721.0;;;25.6;49.79
64019;BME280;66942;52.138;5.216;2023-07-31T05:41:49;100710.0;;;25.35;50.25
64019;BME280;66942;52.138;5.216;2023-07-31T05:43:26;100712.0;;;25.5;50.02
64019;BME280;66942;52.138;5.216;2023-07-31T05:46:41;100708.0;;;25.56;49.93
64019;BME280;66942;52.138;5.216;2023-07-31T05:48:18;100706.0;;;25.51;49.84
64019;BME280;66942;52.138;5.216;2023-07-31T05:49:55;100705.0;;;25.35;50.25
64019;BME280;66942;52.138;5.216;2023-07-31T05:53:08;100697.0;;;25.33;50.46
64019;BME280;66942;52.138;5.216;2023-07-31T05:54:45;100700.0;;;25.57;49.96
64019;BME280;66942;52.138;5.216;2023-07-31T05:56:22;100701.0;;;25.54;49.97
64019;BME280;66942;52.138;5.216;2023-07-31T05:57:59;100699.0;;;25.53;50.1
64019;BME280;66942;52.138;5.216;2023-07-31T06:01:13;100695.0;;;25.44;50.29
64019;BME280;66942;52.138;5.216;2023-07-31T06:02:49;100696.0;;;25.59;50.0
64019;BME280;66942;52.138;5.216;2023-07-31T06:04:26;100693.0;;;25.74;49.68
64019;BME280;66942;52.138;5.216;2023-07-31T06:07:40;100692.0;;;25.46;50.27
64019;BME280;66942;52.138;5.216;2023-07-31T06:09:17;100685.0;;;24.84;51.57
64019;BME280;66942;52.138;5.216;2023-07-31T06:10:53;100688.0;;;25.33;50.61
64019;BME280;66942;52.138;5.216;2023-07-31T06:14:06;100683.0;;;25.5;50.29
64019;BME280;66942;52.138;5.216;2023-07-31T06:15:42;100681.0;;;25.38;50.59
64019;BME280;66942;52.138;5.216;2023-07-31T06:17:19;100677.0;;;25.32;50.71
64019;BME280;66942;52.138;5.216;2023-07-31T06:18:57;100676.0;;;25.38;50.64
64019;BME280;66942;52.138;5.216;2023-07-31T06:22:11;100680.0;;;25.43;50.56
64019;BME280;66942;52.138;5.216;2023-07-31T06:23:47;100676.0;;;25.42;50.69
64019;BME280;66942;52.138;5.216;2023-07-31T06:25:24;100672.0;;;25.38;50.81
64019;BME280;66942;52.138;5.216;2023-07-31T06:28:37;100674.0;;;25.42;50.81
64019;BME280;66942;52.138;5.216;2023-07-31T06:30:15;100673.0;;;25.52;50.66
64019;BME280;66942;52.138;5.216;2023-07-31T06:31:52;100672.0;;;25.44;50.66
64019;BME280;66942;52.138;5.216;2023-07-31T06:33:29;100670.0;;;25.33;51.07
64019;BME280;66942;52.138;5.216;2023-07-31T06:36:43;100668.0;;;25.46;50.77
64019;BME280;66942;52.138;5.216;2023-07-31T06:38:22;100659.0;;;25.57;50.77
64019;BME280;66942;52.138;5.216;2023-07-31T06:40:01;100660.0;;;25.78;50.22
64019;BME280;66942;52.138;5.216;2023-07-31T06:43:15;100652.0;;;25.64;50.68
64019;BME280;66942;52.138;5.216;2023-07-31T06:44:52;100664.0;;;25.82;50.3
64019;BME280;66942;52.138;5.216;2023-07-31T06:46:29;100655.0;;;25.78;50.52
64019;BME280;66942;52.138;5.216;2023-07-31T06:49:43;100653.0;;;25.34;51.06
64019;BME280;66942;52.138;5.216;2023-07-31T06:51:19;100642.0;;;25.74;50.48
64019;BME280;66942;52.138;5.216;2023-07-31T06:52:55;100642.0;;;25.85;50.49
64019;BME280;66942;52.138;5.216;2023-07-31T06:54:32;100644.0;;;25.55;51.15
64019;BME280;66942;52.138;5.216;2023-07-31T06:57:46;100643.0;;;25.88;50.56
64019;BME280;66942;52.138;5.216;2023-07-31T06:59:23;100640.0;;;25.98;50.41
64019;BME280;66942;52.138;5.216;2023-07-31T07:01:00;100638.0;;;25.87;50.62
64019;BME280;66942;52.138;5.216;2023-07-31T07:04:14;100633.0;;;26.12;50.17
64019;BME280;66942;52.138;5.216;2023-07-31T07:05:51;100632.0;;;26.0;50.25
64019;BME280;66942;52.138;5.216;2023-07-31T07:07:28;100634.0;;;25.95;50.51
64019;BME280;66942;52.138;5.216;2023-07-31T07:09:05;100635.0;;;25.79;51.0
64019;BME280;66942;52.138;5.216;2023-07-31T07:12:18;100638.0;;;26.05;50.36
64019;BME280;66942;52.138;5.216;2023-07-31T07:13:55;100635.0;;;26.1;50.2
64019;BME280;66942;52.138;5.216;2023-07-31T07:15:33;100627.0;;;26.27;50.02
64019;BME280;66942;52.138;5.216;2023-07-31T07:18:46;100634.0;;;26.16;50.27
64019;BME280;66942;52.138;5.216;2023-07-31T07:20:23;100634.0;;;26.18;50.35
64019;BME280;66942;52.138;5.216;2023-07-31T07:22:01;100630.0;;;25.69;51.18
64019;BME280;66942;52.138;5.216;2023-07-31T07:25:14;100633.0;;;25.62;51.35
64019;BME280;66942;52.138;5.216;2023-07-31T07:26:51;100631.0;;;25.87;50.9
64019;BME280;66942;52.138;5.216;2023-07-31T07:28:28;100628.0;;;26.13;50.53
64019;BME280;66942;52.138;5.216;2023-07-31T07:30:06;100630.0;;;26.16;50.48
64019;BME280;66942;52.138;5.216;2023-07-31T07:33:20;100637.0;;;26.06;50.52
64019;BME280;66942;52.138;5.216;2023-07-31T07:34:57;100632.0;;;25.99;51.05
64019;BME280;66942;52.138;5.216;2023-07-31T07:36:33;100631.0;;;26.12;50.91
64019;BME280;66942;52.138;5.216;2023-07-31T07:39:49;100636.0;;;26.35;50.2
64019;BME280;66942;52.138;5.216;2023-07-31T07:41:25;100637.0;;;25.79;51.51
64019;BME280;66942;52.138;5.216;2023-07-31T07:43:03;100630.0;;;26.26;50.7
64019;BME280;66942;52.138;5.216;2023-07-31T07:44:39;100631.0;;;26.09;51.07
64019;BME280;66942;52.138;5.216;2023-07-31T07:47:52;100627.0;;;25.62;52.0
64019;BME280;66942;52.138;5.216;2023-07-31T07:49:30;100627.0;;;26.07;51.31
64019;BME280;66942;52.138;5.216;2023-07-31T07:51:08;100625.0;;;26.52;50.39
64019;BME280;66942;52.138;5.216;2023-07-31T07:54:22;100620.0;;;26.29;51.06
64019;BME280;66942;52.138;5.216;2023-07-31T07:55:59;100624.0;;;25.8;52.08
64019;BME280;66942;52.138;5.216;2023-07-31T07:57:36;100621.0;;;26.26;51.05
64019;BME280;66942;52.138;5.216;2023-07-31T08:00:50;100616.0;;;26.31;50.96
64019;BME280;66942;52.138;5.216;2023-07-31T08:02:26;100612.0;;;25.62;52.74
64019;BME280;66942;52.138;5.216;2023-07-31T08:04:03;100617.0;;;25.6;52.71
64019;BME280;66942;52.138;5.216;2023-07-31T08:05:40;100613.0;;;26.09;51.68
64019;BME280;66942;52.138;5.216;2023-07-31T08:08:54;100622.0;;;25.72;52.57
64019;BME280;66942;52.138;5.216;2023-07-31T08:10:31;100614.0;;;26.1;51.6
64019;BME280;66942;52.138;5.216;2023-07-31T08:12:08;100613.0;;;26.36;51.18
64019;BME280;66942;52.138;5.216;2023-07-31T08:15:22;100607.0;;;26.23;51.54
64019;BME280;66942;52.138;5.216;2023-07-31T08:17:00;100606.0;;;26.03;51.95
64019;BME280;66942;52.138;5.216;2023-07-31T08:18:37;100603.0;;;26.54;50.78
64019;BME280;66942;52.138;5.216;2023-07-31T08:20:15;100602.0;;;26.2;51.6
64019;BME280;66942;52.138;5.216;2023-07-31T08:23:29;100598.0;;;26.42;51.14
64019;BME280;66942;52.138;5.216;2023-07-31T08:25:06;100591.0;;;26.6;50.81
64019;BME280;66942;52.138;5.216;2023-07-31T08:26:43;100597.0;;;26.86;50.3
64019;BME280;66942;52.138;5.216;2023-07-31T08:29:57;100589.0;;;26.0;52.36
64019;BME280;66942;52.138;5.216;2023-07-31T08:31:35;100595.0;;;26.25;51.72
64019;BME280;66942;52.138;5.216;2023-07-31T08:33:12;100599.0;;;26.3;51.6
64019;BME280;66942;52.138;5.216;2023-07-31T08:36:25;100593.0;;;26.57;51.25
64019;BME280;66942;52.138;5.216;2023-07-31T08:38:02;100594.0;;;26.88;50.86
64019;BME280;66942;52.138;5.216;2023-07-31T08:39:39;100592.0;;;26.91;50.9
64019;BME280;66942;52.138;5.216;2023-07-31T08:41:17;100596.0;;;26.87;50.87
64019;BME280;66942;52.138;5.216;2023-07-31T08:44:32;100593.0;;;26.85;51.13
64019;BME280;66942;52.138;5.216;2023-07-31T08:46:10;100589.0;;;26.46;51.9
64019;BME280;66942;52.138;5.216;2023-07-31T08:47:49;100591.0;;;27.0;50.6
64019;BME280;66942;52.138;5.216;2023-07-31T08:49:27;100589.0;;;26.84;51.26
64019;BME280;66942;52.138;5.216;2023-07-31T08:52:44;100585.0;;;27.09;50.65
64019;BME280;66942;52.138;5.216;2023-07-31T08:54:23;100589.0;;;26.93;50.67
64019;BME280;66942;52.138;5.216;2023-07-31T08:56:01;100591.0;;;27.08;50.11
64019;BME280;66942;52.138;5.216;2023-07-31T08:59:18;100585.0;;;26.93;50.9
64019;BME280;66942;52.138;5.216;2023-07-31T09:00:58;100589.0;;;27.26;50.11
64019;BME280;66942;52.138;5.216;2023-07-31T09:02:45;100588.0;;;27.11;50.27
64019;BME280;66942;52.138;5.216;2023-07-31T09:04:28;100589.0;;;27.12;50.31
64019;BME280;66942;52.138;5.216;2023-07-31T09:07:44;100592.0;;;27.0;50.46
64019;BME280;66942;52.138;5.216;2023-07-31T09:09:23;100590.0;;;27.12;50.14
64019;BME280;66942;52.138;5.216;2023-07-31T09:11:00;100601.0;;;27.14;49.96
64019;BME280;66942;52.138;5.216;2023-07-31T09:12:38;100594.0;;;26.69;51.29
64019;BME280;66942;52.138;5.216;2023-07-31T09:15:54;100594.0;;;27.18;50.14
64019;BME280;66942;52.138;5.216;2023-07-31T09:17:34;100591.0;;;27.14;50.26
64019;BME280;66942;52.138;5.216;2023-07-31T09:19:10;100583.0;;;27.28;50.09
64019;BME280;66942;52.138;5.216;2023-07-31T09:22:36;100582.0;;;26.99;50.56
64019;BME280;66942;52.138;5.216;2023-07-31T09:24:25;100580.0;;;27.41;49.96
64019;BME280;66942;52.138;5.216;2023-07-31T09:26:01;100575.0;;;27.23;50.44
64019;BME280;66942;52.138;5.216;2023-07-31T09:27:46;100578.0;;;27.29;50.37
64019;BME280;66942;52.138;5.216;2023-07-31T09:29:23;100584.0;;;27.36;50.32
64019;BME280;66942;52.138;5.216;2023-07-31T09:32:38;100574.0;;;27.32;50.54
64019;BME280;66942;52.138;5.216;2023-07-31T09:34:14;100572.0;;;27.44;50.37
64019;BME280;66942;52.138;5.216;2023-07-31T09:35:52;100571.0;;;27.31;50.54
64019;BME280;66942;52.138;5.216;2023-07-31T09:39:09;100573.0;;;27.35;50.58
64019;BME280;66942;52.138;5.216;2023-07-31T09:40:47;100576.0;;;27.31;50.7
64019;BME280;66942;52.138;5.216;2023-07-31T09:42:25;100573.0;;;27.59;50.12
64019;BME280;66942;52.138;5.216;2023-07-31T09:44:03;100577.0;;;27.8;49.58
64019;BME280;66942;52.138;5.216;2023-07-31T09:47:22;100567.0;;;27.68;49.94
64019;BME280;66942;52.138;5.216;2023-07-31T09:49:10;100572.0;;;27.84;49.57
64019;BME280;66942;52.138;5.216;2023-07-31T09:50:48;100569.0;;;27.69;49.83
64019;BME280;66942;52.138;5.216;2023-07-31T09:52:26;100570.0;;;27.52;50.41
64019;BME280;66942;52.138;5.216;2023-07-31T09:55:41;100571.0;;;27.69;50.08
64019;BME280;66942;52.138;5.216;2023-07-31T09:57:19;100570.0;;;27.5;50.1
64019;BME280;66942;52.138;5.216;2023-07-31T09:58:58;100567.0;;;27.85;49.78
64019;BME280;66942;52.138;5.216;2023-07-31T10:00:36;100565.0;;;27.92;49.54
64019;BME280;66942;52.138;5.216;2023-07-31T10:03:57;100568.0;;;27.96;49.4
64019;BME280;66942;52.138;5.216;2023-07-31T10:05:36;100567.0;;;27.88;49.69
64019;BME280;66942;52.138;5.216;2023-07-31T10:07:17;100563.0;;;27.77;49.89
64019;BME280;66942;52.138;5.216;2023-07-31T10:10:32;100563.0;;;27.91;49.5
64019;BME280;66942;52.138;5.216;2023-07-31T10:12:14;100569.0;;;27.64;50.1
64019;BME280;66942;52.138;5.216;2023-07-31T10:13:54;100568.0;;;28.09;49.49
64019;BME280;66942;52.138;5.216;2023-07-31T10:15:32;100568.0;;;28.22;49.37
64019;BME280;66942;52.138;5.216;2023-07-31T10:18:49;100573.0;;;27.96;49.82
64019;BME280;66942;52.138;5.216;2023-07-31T10:20:26;100572.0;;;28.17;49.08
64019;BME280;66942;52.138;5.216;2023-07-31T10:22:05;100571.0;;;28.17;49.01
64019;BME280;66942;52.138;5.216;2023-07-31T10:23:44;100569.0;;;28.01;49.33
64019;BME280;66942;52.138;5.216;2023-07-31T10:27:00;100565.0;;;28.26;48.89
64019;BME280;66942;52.138;5.216;2023-07-31T10:28:37;100570.0;;;28.32;48.69
64019;BME280;66942;52.138;5.216;2023-07-31T10:30:17;100566.0;;;28.39;48.76
64019;BME280;66942;52.138;5.216;2023-07-31T10:33:34;100565.0;;;28.38;48.72
64019;BME280;66942;52.138;5.216;2023-07-31T10:35:11;100563.0;;;28.07;49.01
64019;BME280;66942;52.138;5.216;2023-07-31T10:36:48;100561.0;;;27.39;50.63
64019;BME280;66942;52.138;5.216;2023-07-31T10:38:25;100562.0;;;28.16;48.98
64019;BME280;66942;52.138;5.216;2023-07-31T10:41:40;100563.0;;;28.31;48.61
64019;BME280;66942;52.138;5.216;2023-07-31T10:43:24;100555.0;;;28.33;48.57
64019;BME280;66942;52.138;5.216;2023-07-31T10:45:03;100557.0;;;28.25;48.73
64019;BME280;66942;52.138;5.216;2023-07-31T10:46:42;100562.0;;;28.24;48.76
64019;BME280;66942;52.138;5.216;2023-07-31T10:50:17;100563.0;;;28.31;48.44
64019;BME280;66942;52.138;5.216;2023-07-31T10:52:11;100565.0;;;28.29;48.45
64019;BME280;66942;52.138;5.216;2023-07-31T10:53:48;100569.0;;;28.17;48.35
64019;BME280;66942;52.138;5.216;2023-07-31T10:55:27;100570.0;;;28.05;48.91
64019;BME280;66942;52.138;5.216;2023-07-31T10:57:19;100565.0;;;27.97;48.84
64019;BME280;66942;52.138;5.216;2023-07-31T11:00:39;100560.0;;;28.12;48.6
64019;BME280;66942;52.138;5.216;2023-07-31T11:02:24;100557.0;;;28.2;48.52
64019;BME280;66942;52.138;5.216;2023-07-31T11:04:11;100562.0;;;28.02;48.93
64019;BME280;66942;52.138;5.216;2023-07-31T11:05:49;100556.0;;;28.0;49.21